createdAt,value
2017-11-24T00:00:46.986Z,124.37
2017-11-24T00:03:15.679Z,115.57
2017-11-24T00:05:44.253Z,116.10
2017-11-24T00:08:12.192Z,130.93
2017-11-24T00:10:40.143Z,123.73
2017-11-24T00:13:07.991Z,125.50
2017-11-24T00:15:35.936Z,124.33
2017-11-24T00:18:03.907Z,118.43
2017-11-24T00:20:31.740Z,118.10
2017-11-24T00:23:00.400Z,125.90
2017-11-24T00:25:28.284Z,123.10
2017-11-24T00:27:56.117Z,111.07
2017-11-24T00:30:24.061Z,112.77
2017-11-24T00:32:51.946Z,112.60
2017-11-24T00:35:20.530Z,115.27
2017-11-24T00:37:48.423Z,115.30
2017-11-24T00:40:16.278Z,111.30
2017-11-24T00:42:45.018Z,129.33
2017-11-24T00:45:12.866Z,109.57
2017-11-24T00:47:40.773Z,106.63
2017-11-24T00:50:08.646Z,110.17
2017-11-24T00:52:36.623Z,104.63
2017-11-24T00:55:04.510Z,111.10
2017-11-24T00:57:32.475Z,113.87
2017-11-24T01:00:11.249Z,104.87
2017-11-24T01:02:39.208Z,109.80
2017-11-24T01:05:07.048Z,104.00
2017-11-24T01:07:35.000Z,102.60
2017-11-24T01:12:36.871Z,100.90
2017-11-24T01:15:05.495Z,101.03
2017-11-24T01:17:33.353Z,98.33
2017-11-24T01:20:01.233Z,94.80
2017-11-24T01:22:29.080Z,86.77
2017-11-24T01:24:57.753Z,89.57
2017-11-24T01:27:26.646Z,93.13
2017-11-24T01:29:54.562Z,85.67
2017-11-24T01:32:22.454Z,99.30
2017-11-24T01:34:50.414Z,95.63
2017-11-24T01:37:18.255Z,95.80
2017-11-24T01:39:46.119Z,87.27
2017-11-24T01:42:13.972Z,79.33
2017-11-24T01:44:41.860Z,89.87
2017-11-24T01:47:09.646Z,75.53
2017-11-24T01:49:37.637Z,70.50
2017-11-24T01:52:05.534Z,70.57
2017-11-24T01:54:33.459Z,85.53
2017-11-24T01:57:01.339Z,71.40
2017-11-24T01:59:29.285Z,83.40
2017-11-24T02:01:57.197Z,69.93
2017-11-24T02:04:25.108Z,72.20
2017-11-24T02:06:53.676Z,75.80
2017-11-24T02:09:21.552Z,82.50
2017-11-24T02:11:49.461Z,69.47
2017-11-24T02:14:18.254Z,71.23
2017-11-24T02:16:46.076Z,63.50
2017-11-24T02:19:13.926Z,71.23
2017-11-24T02:21:41.768Z,55.53
2017-11-24T02:24:09.758Z,50.57
2017-11-24T02:26:38.671Z,51.37
2017-11-24T02:29:06.676Z,53.93
2017-11-24T02:31:34.533Z,48.73
2017-11-24T02:34:03.223Z,45.73
2017-11-24T02:36:31.934Z,58.70
2017-11-24T02:38:59.836Z,52.07
2017-11-24T02:41:27.816Z,46.67
2017-11-24T02:43:55.752Z,52.40
2017-11-24T02:46:23.621Z,45.83
2017-11-24T02:48:51.465Z,47.07
2017-11-24T02:51:19.410Z,47.83
2017-11-24T02:53:48.020Z,45.93
2017-11-24T02:56:15.885Z,49.30
2017-11-24T02:58:44.606Z,51.87
2017-11-24T03:01:12.484Z,47.37
2017-11-24T03:03:40.308Z,43.00
2017-11-24T03:06:09.013Z,46.70
2017-11-24T03:08:36.946Z,45.07
2017-11-24T03:11:05.597Z,45.97
2017-11-24T03:13:33.440Z,49.20
2017-11-24T03:16:01.347Z,41.20
2017-11-24T03:18:29.273Z,39.90
2017-11-24T03:20:57.184Z,45.00
2017-11-24T03:23:25.060Z,46.00
2017-11-24T03:25:52.947Z,45.80
2017-11-24T03:28:20.827Z,44.80
2017-11-24T03:30:49.423Z,47.50
2017-11-24T03:33:18.108Z,44.40
2017-11-24T03:35:46.005Z,48.93
2017-11-24T03:38:14.568Z,45.90
2017-11-24T03:40:42.388Z,46.70
2017-11-24T03:43:10.991Z,42.80
2017-11-24T03:45:39.119Z,50.93
2017-11-24T03:48:07.017Z,41.87
2017-11-24T03:50:34.915Z,51.63
2017-11-24T03:53:02.856Z,47.53
2017-11-24T03:55:30.795Z,41.93
2017-11-24T03:57:58.686Z,43.70
2017-11-24T04:00:26.554Z,47.90
2017-11-24T04:02:54.452Z,48.67
2017-11-24T04:05:22.399Z,39.80
2017-11-24T04:07:50.265Z,52.50
2017-11-24T04:10:18.145Z,43.00
2017-11-24T04:12:46.024Z,35.20
2017-11-24T04:15:13.907Z,41.40
2017-11-24T04:17:41.896Z,42.60
2017-11-24T04:20:09.851Z,43.80
2017-11-24T04:22:37.786Z,44.10
2017-11-24T04:25:05.628Z,42.20
2017-11-24T04:27:34.261Z,47.83
2017-11-24T04:30:02.182Z,42.13
2017-11-24T04:32:30.138Z,40.50
2017-11-24T04:34:57.992Z,42.10
2017-11-24T04:37:25.924Z,41.33
2017-11-24T04:39:53.771Z,46.10
2017-11-24T04:42:22.421Z,45.53
2017-11-24T04:44:50.372Z,37.30
2017-11-24T04:47:18.275Z,43.63
2017-11-24T04:49:47.491Z,42.63
2017-11-24T04:52:15.386Z,45.00
2017-11-24T04:54:43.420Z,44.27
2017-11-24T04:57:12.954Z,40.53
2017-11-24T04:59:40.827Z,36.73
2017-11-24T05:02:09.004Z,42.90
2017-11-24T05:04:36.890Z,42.20
2017-11-24T05:07:04.721Z,39.73
2017-11-24T05:09:33.362Z,40.93
2017-11-24T05:12:01.321Z,42.07
2017-11-24T05:14:29.238Z,38.77
2017-11-24T05:16:57.888Z,38.13
2017-11-24T05:19:25.807Z,46.07
2017-11-24T05:21:53.625Z,40.73
2017-11-24T05:24:22.308Z,38.10
2017-11-24T05:26:50.172Z,37.97
2017-11-24T05:29:18.278Z,37.50
2017-11-24T05:31:56.381Z,32.97
2017-11-24T05:34:27.957Z,35.10
2017-11-24T05:39:54.408Z,39.87
2017-11-24T05:42:36.222Z,37.00
2017-11-24T05:48:59.405Z,32.60
2017-11-24T05:51:37.385Z,31.80
2017-11-24T05:54:05.254Z,33.27
2017-11-24T05:56:33.910Z,30.23
2017-11-24T05:59:01.842Z,32.80
2017-11-24T06:01:29.895Z,28.53
2017-11-24T06:03:57.898Z,26.43
2017-11-24T06:06:27.269Z,31.03
2017-11-24T06:08:57.249Z,30.67
2017-11-24T06:25:08.567Z,29.90
2017-11-24T06:27:38.448Z,32.47
2017-11-24T06:30:11.267Z,27.67
2017-11-24T06:32:40.695Z,24.53
2017-11-24T06:45:48.087Z,28.10
2017-11-24T06:48:18.300Z,41.50
2017-11-24T06:50:50.172Z,30.60
2017-11-24T06:53:18.169Z,56.13
2017-11-24T06:55:55.426Z,39.73
2017-11-24T06:58:23.317Z,35.03
2017-11-24T07:00:51.939Z,47.67
2017-11-24T07:03:19.830Z,49.13
2017-11-24T07:05:47.715Z,31.77
2017-11-24T07:08:15.550Z,44.13
2017-11-24T07:10:43.412Z,45.73
2017-11-24T07:13:11.375Z,35.90
2017-11-24T07:15:39.265Z,34.40
2017-11-24T07:18:07.045Z,43.83
2017-11-24T07:20:34.944Z,43.37
2017-11-24T07:23:03.701Z,31.73
2017-11-24T07:25:31.644Z,31.73
2017-11-24T07:27:59.500Z,30.87
2017-11-24T07:30:27.294Z,42.03
2017-11-24T07:32:55.210Z,42.73
2017-11-24T09:48:25.518Z,40.70
2017-11-24T10:04:59.716Z,37.50
2017-11-24T10:07:27.722Z,39.33
2017-11-24T10:09:55.596Z,41.30
2017-11-24T10:12:23.422Z,42.90
2017-11-24T10:14:51.333Z,38.43
2017-11-24T10:40:29.175Z,52.30
2017-11-24T10:42:57.315Z,51.63
2017-11-24T10:52:22.128Z,56.23
2017-11-24T10:54:50.042Z,50.67
2017-11-24T10:57:17.948Z,53.00
2017-11-24T10:59:45.899Z,62.57
2017-11-24T11:02:13.776Z,53.10
2017-11-24T11:04:41.659Z,52.53
2017-11-24T11:07:09.576Z,60.37
2017-11-24T11:12:59.086Z,59.30
2017-11-24T11:15:34.769Z,58.27
2017-11-24T11:18:02.886Z,63.90
2017-11-24T11:20:31.134Z,59.53
2017-11-24T11:22:59.037Z,60.03
2017-11-24T11:25:26.951Z,57.57
2017-11-24T11:27:55.678Z,65.47
2017-11-24T11:30:23.710Z,64.83
2017-11-24T11:32:51.857Z,63.60
2017-11-24T11:35:19.765Z,64.50
2017-11-24T11:41:30.133Z,62.43
2017-11-24T11:43:58.238Z,79.80
2017-11-24T12:10:41.237Z,74.87
2017-11-24T12:13:09.146Z,81.83
2017-11-24T12:15:37.790Z,76.77
2017-11-24T12:18:05.789Z,80.03
2017-11-24T12:20:33.614Z,74.70
2017-11-24T12:23:01.510Z,83.47
2017-11-24T12:25:29.441Z,76.20
2017-11-24T12:27:57.480Z,79.37
2017-11-24T12:30:25.432Z,62.03
2017-11-24T12:32:53.424Z,67.23
2017-11-24T12:35:21.322Z,69.80
2017-11-24T12:37:49.162Z,64.97
2017-11-24T12:40:17.161Z,68.00
2017-11-24T12:42:45.765Z,73.90
2017-11-24T12:45:13.723Z,77.03
2017-11-24T12:47:41.626Z,84.57
2017-11-24T12:50:10.196Z,79.70
2017-11-24T12:52:38.096Z,76.97
2017-11-24T12:55:05.992Z,79.23
2017-11-24T12:57:33.876Z,71.83
2017-11-24T13:00:11.388Z,76.60
2017-11-24T13:02:39.258Z,85.50
2017-11-24T13:05:07.371Z,78.13
2017-11-24T13:07:35.307Z,88.07
2017-11-24T13:10:03.252Z,73.07
2017-11-24T13:12:31.924Z,77.37
2017-11-24T13:15:01.123Z,92.20
2017-11-24T13:17:29.104Z,85.80
2017-11-24T13:19:56.967Z,89.07
2017-11-24T13:22:24.795Z,91.60
2017-11-24T13:24:53.000Z,89.80
2017-11-24T13:27:20.861Z,93.83
2017-11-24T13:29:50.358Z,92.50
2017-11-24T13:32:18.169Z,90.97
2017-11-24T13:34:46.073Z,93.83
2017-11-24T13:37:13.961Z,100.67
2017-11-24T13:39:41.816Z,94.37
2017-11-24T13:42:09.762Z,105.57
2017-11-24T13:44:40.107Z,113.83
2017-11-24T13:47:13.674Z,93.00
2017-11-24T13:49:46.626Z,96.90
2017-11-24T13:52:14.697Z,113.43
2017-11-24T13:54:43.478Z,114.50
2017-11-24T13:57:11.415Z,112.20
2017-11-24T13:59:39.982Z,117.97
2017-11-24T14:02:07.897Z,122.43
2017-11-24T14:04:40.372Z,125.50
2017-11-24T14:07:08.473Z,128.80
2017-11-24T14:34:14.395Z,146.90
2017-11-24T14:43:44.673Z,141.30
2017-11-24T14:53:14.369Z,130.77
2017-11-24T15:02:38.469Z,130.77
2017-11-24T15:05:06.582Z,132.40
2017-11-24T15:11:35.578Z,130.27
2017-11-24T15:14:07.719Z,146.57
2017-11-24T15:16:35.506Z,148.77
2017-11-24T15:19:03.343Z,155.67
2017-11-24T15:21:31.866Z,149.37
2017-11-24T15:23:59.773Z,147.17
2017-11-24T15:26:27.628Z,152.60
2017-11-24T15:28:56.017Z,159.87
2017-11-24T15:31:23.906Z,155.40
2017-11-24T15:33:51.903Z,167.63
2017-11-24T15:36:25.378Z,170.37
2017-11-24T15:38:53.342Z,162.67
2017-11-24T15:41:21.186Z,172.40
2017-11-24T15:43:49.022Z,164.60
2017-11-24T15:46:16.818Z,166.43
2017-11-24T15:48:45.625Z,160.13
2017-11-24T15:51:13.592Z,185.00
2017-11-24T15:53:43.606Z,187.23
2017-11-24T15:56:11.452Z,166.00
2017-11-24T15:58:39.288Z,162.90
2017-11-24T16:01:07.951Z,158.57
2017-11-24T16:03:35.762Z,173.73
2017-11-24T16:06:03.669Z,161.10
2017-11-24T16:08:32.254Z,163.87
2017-11-24T16:11:00.087Z,160.47
2017-11-24T16:13:27.857Z,155.73
2017-11-24T16:15:55.767Z,162.33
2017-11-24T16:18:23.615Z,162.30
2017-11-24T16:20:51.438Z,170.47
2017-11-24T16:23:19.180Z,165.03
2017-11-24T16:25:47.020Z,165.00
2017-11-24T16:28:14.878Z,166.33
2017-11-24T16:30:42.691Z,167.33
2017-11-24T16:33:10.526Z,171.00
2017-11-24T16:35:38.347Z,169.10
2017-11-24T16:38:06.220Z,166.57
2017-11-24T16:40:37.637Z,159.90
2017-11-24T16:56:41.573Z,168.93
2017-11-24T17:09:39.995Z,157.73
2017-11-24T17:18:53.333Z,160.97
2017-11-24T17:21:23.049Z,153.03
2017-11-24T17:23:52.051Z,166.47
2017-11-24T17:29:54.348Z,160.30
2017-11-24T17:32:37.652Z,158.50
2017-11-24T17:38:38.366Z,159.93
2017-11-24T17:51:25.492Z,158.63
2017-11-24T17:53:53.310Z,163.67
2017-11-24T20:01:57.187Z,172.47
2017-11-24T20:04:49.650Z,174.57
2017-11-24T20:13:52.222Z,171.93
2017-11-24T20:16:21.788Z,168.00
2017-11-24T20:19:10.641Z,160.73
2017-11-24T23:03:18.348Z,160.03
2017-11-24T23:05:48.234Z,154.93
2017-11-24T23:08:24.832Z,157.37
2017-11-24T23:25:05.260Z,160.87
2017-11-24T23:44:53.306Z,142.97
2017-11-24T23:47:29.391Z,145.40
2017-11-24T23:50:15.900Z,148.73
2017-11-24T23:59:33.417Z,140.63
